Saudade — FAA3845 — position and weather

sailwx.info

Track history (hours):
 
Tides and Currents Weather Stations Pressure Air Temp Water Temp Dewpoint Dewpoint Depression Visibility Wind Speed Wind Dir Waves Ship Positions

Saudade

Last reported at 2017-Aug-28 07:58 UTC. Time now 2017-Dec-14 08:13 UTC.
Position N 47°53' W 003°58'.
Warning: this ship's position is months out of date.

Type: Pleasure craft. MMSI: 227116860.

Date/timePositionNaut miles runAvg speedWind from/ knotsBaromVisibWave heightAir tempDewpointWater temp
2017-Aug-28 07:58N 47°53' W 003°58'4 0.2
2017-Aug-27 08:53N 47°48' W 003°58'  
2017-Aug-22 14:38N 47°44' W 003°60'1 0.2
2017-Aug-22 07:58N 47°43' W 003°58'0 0.0
2017-Aug-22 07:19N 47°43' W 003°58'0 0.0
2017-Aug-21 12:38N 47°43' W 003°58'3 1.7
2017-Aug-21 10:58N 47°43' W 003°53'6 7.2
2017-Aug-21 10:09N 47°42' W 003°45'1 7.0
2017-Aug-21 09:58N 47°42' W 003°43'3 7.1
2017-Aug-21 09:30N 47°42' W 003°38'4 7.3
2017-Aug-21 09:00N 47°41' W 003°33'4 7.3
2017-Aug-21 08:30N 47°40' W 003°27'3 5.2
2017-Aug-21 08:00N 47°38' W 003°25'0 0.5
2017-Aug-21 07:28N 47°38' W 003°25'0 0.0
2017-Aug-20 16:18N 47°38' W 003°25'0 0.0
2017-Aug-20 16:00N 47°38' W 003°25'0 0.0
2017-Aug-20 15:30N 47°38' W 003°25'0 0.0
2017-Aug-20 15:00N 47°38' W 003°25'0 0.0
2017-Aug-20 14:30N 47°38' W 003°25'0 0.0
2017-Aug-20 14:00N 47°38' W 003°25'0 0.0
2017-Aug-20 13:30N 47°38' W 003°25'0 0.0
2017-Aug-20 13:00N 47°38' W 003°25'0 0.0
2017-Aug-20 12:30N 47°38' W 003°25'0 0.0
2017-Aug-20 12:00N 47°38' W 003°25'0 0.0
2017-Aug-20 11:30N 47°38' W 003°25'0 0.0
2017-Aug-20 11:00N 47°38' W 003°25'0 0.0
2017-Aug-20 10:30N 47°38' W 003°25'2 4.2
2017-Aug-20 10:01N 47°36' W 003°23'3 6.8
2017-Aug-20 09:31N 47°33' W 003°20'4 7.0
2017-Aug-20 09:00N 47°30' W 003°17'4 7.0
2017-Aug-20 08:30N 47°27' W 003°14'4 7.4
2017-Aug-20 08:00N 47°24' W 003°12'4 7.5
2017-Aug-20 07:30N 47°21' W 003°09'1 0.0
2017-Aug-18 17:28N 47°20' W 003°09'0 0.0
2017-Aug-18 16:58N 47°20' W 003°09'0 0.0
2017-Aug-18 16:28N 47°20' W 003°09'0 0.0
2017-Aug-18 15:58N 47°20' W 003°09'0 0.0
2017-Aug-18 15:28N 47°20' W 003°09'0 0.0
2017-Aug-18 14:58N 47°20' W 003°09'0 0.0
2017-Aug-18 14:28N 47°20' W 003°09'0 0.0
2017-Aug-18 13:28N 47°20' W 003°09'0 0.0
2017-Aug-18 12:58N 47°20' W 003°09'0 0.0
2017-Aug-18 12:28N 47°20' W 003°09'0 0.0
2017-Aug-18 11:58N 47°20' W 003°09'0 0.0
2017-Aug-18 11:28N 47°20' W 003°09'0 0.0
2017-Aug-18 10:58N 47°20' W 003°09'0 0.0
2017-Aug-18 10:25N 47°20' W 003°09'0 0.0
2017-Aug-18 09:58N 47°20' W 003°09'0 0.0
2017-Aug-18 09:28N 47°20' W 003°09'0 0.0
2017-Aug-18 08:58N 47°20' W 003°09'0 0.0
2017-Aug-18 08:28N 47°20' W 003°09'  
Track history (hours):
 
Tides and Currents Weather Stations Pressure Air Temp Water Temp Dewpoint Dewpoint Depression Visibility Wind Speed Wind Dir Waves Ship Positions

Saudade

Last reported at 2017-Aug-28 07:58 UTC. Time now 2017-Dec-14 08:13 UTC.
Position N 47°53' W 003°58'.
Warning: this ship's position is months out of date.

Type: Pleasure craft. MMSI: 227116860.

Date/timePositionNaut miles runAvg speedWind from/ knotsBaromVisibWave heightAir tempDewpointWater temp
2017-Aug-28 07:58N 47°53' W 003°58'4 0.2
2017-Aug-27 08:53N 47°48' W 003°58'  
2017-Aug-22 14:38N 47°44' W 003°60'1 0.2
2017-Aug-22 07:58N 47°43' W 003°58'0 0.0
2017-Aug-22 07:19N 47°43' W 003°58'0 0.0
2017-Aug-21 12:38N 47°43' W 003°58'3 1.7
2017-Aug-21 10:58N 47°43' W 003°53'6 7.2
2017-Aug-21 10:09N 47°42' W 003°45'1 7.0
2017-Aug-21 09:58N 47°42' W 003°43'3 7.1
2017-Aug-21 09:30N 47°42' W 003°38'4 7.3
2017-Aug-21 09:00N 47°41' W 003°33'4 7.3
2017-Aug-21 08:30N 47°40' W 003°27'3 5.2
2017-Aug-21 08:00N 47°38' W 003°25'0 0.5
2017-Aug-21 07:28N 47°38' W 003°25'0 0.0
2017-Aug-20 16:18N 47°38' W 003°25'0 0.0
2017-Aug-20 16:00N 47°38' W 003°25'0 0.0
2017-Aug-20 15:30N 47°38' W 003°25'0 0.0
2017-Aug-20 15:00N 47°38' W 003°25'0 0.0
2017-Aug-20 14:30N 47°38' W 003°25'0 0.0
2017-Aug-20 14:00N 47°38' W 003°25'0 0.0
2017-Aug-20 13:30N 47°38' W 003°25'0 0.0
2017-Aug-20 13:00N 47°38' W 003°25'0 0.0
2017-Aug-20 12:30N 47°38' W 003°25'0 0.0
2017-Aug-20 12:00N 47°38' W 003°25'0 0.0
2017-Aug-20 11:30N 47°38' W 003°25'0 0.0
2017-Aug-20 11:00N 47°38' W 003°25'0 0.0
2017-Aug-20 10:30N 47°38' W 003°25'2 4.2
2017-Aug-20 10:01N 47°36' W 003°23'3 6.8
2017-Aug-20 09:31N 47°33' W 003°20'4 7.0
2017-Aug-20 09:00N 47°30' W 003°17'4 7.0
2017-Aug-20 08:30N 47°27' W 003°14'4 7.4
2017-Aug-20 08:00N 47°24' W 003°12'4 7.5
2017-Aug-20 07:30N 47°21' W 003°09'1 0.0
2017-Aug-18 17:28N 47°20' W 003°09'0 0.0
2017-Aug-18 16:58N 47°20' W 003°09'0 0.0
2017-Aug-18 16:28N 47°20' W 003°09'0 0.0
2017-Aug-18 15:58N 47°20' W 003°09'0 0.0
2017-Aug-18 15:28N 47°20' W 003°09'0 0.0
2017-Aug-18 14:58N 47°20' W 003°09'0 0.0
2017-Aug-18 14:28N 47°20' W 003°09'0 0.0
2017-Aug-18 13:28N 47°20' W 003°09'0 0.0
2017-Aug-18 12:58N 47°20' W 003°09'0 0.0
2017-Aug-18 12:28N 47°20' W 003°09'0 0.0
2017-Aug-18 11:58N 47°20' W 003°09'0 0.0
2017-Aug-18 11:28N 47°20' W 003°09'0 0.0
2017-Aug-18 10:58N 47°20' W 003°09'0 0.0
2017-Aug-18 10:25N 47°20' W 003°09'0 0.0
2017-Aug-18 09:58N 47°20' W 003°09'0 0.0
2017-Aug-18 09:28N 47°20' W 003°09'0 0.0
2017-Aug-18 08:58N 47°20' W 003°09'0 0.0
2017-Aug-18 08:28N 47°20' W 003°09'  

Dump ship's entire track history